Time;durP1;ratioP1;P1;durP2;ratioP2;P2;SDS_P1;SDS_P2;PMS_P1;PMS_P2;Temp;Humidity;BMP_temperature;BMP_pressure;BME280_temperature;BME280_humidity;BME280_pressure;Samples;Min_cycle;Max_cycle;Signal;HPM_P1;HPM_P2
2024/01/01 00:00:34;;;;;;;;;;;18.40;48.20;;;;;;5094972;28;19920;-67
2024/01/01 00:03:00;;;;;;;;;;;18.30;48.30;;;;;;5112883;28;20416;-67
2024/01/01 00:05:26;;;;;;;;;;;18.30;48.50;;;;;;5128497;28;20343;-67
2024/01/01 00:07:51;;;;;;;;;;;18.20;48.50;;;;;;5094474;28;19957;-67
2024/01/01 00:10:20;;;;;;;;;;;18.10;48.60;;;;;;5094736;28;19926;-67
2024/01/01 00:12:46;;;;;;;;;;;18.10;48.70;;;;;;5094678;28;19923;-67
2024/01/01 00:15:11;;;;;;;;;;;18.00;48.80;;;;;;5128684;28;20278;-68
2024/01/01 00:17:37;;;;;;;;;;;18.00;48.90;;;;;;5112834;28;19931;-68
2024/01/01 00:20:07;;;;;;;;;;;17.90;49.10;;;;;;5128831;28;20246;-68
2024/01/01 00:22:32;;;;;;;;;;;17.90;49.10;;;;;;5128735;28;19926;-68
2024/01/01 00:24:58;;;;;;;;;;;17.80;49.20;;;;;;5128437;28;19920;-67
2024/01/01 00:27:24;;;;;;;;;;;17.80;49.40;;;;;;5128653;28;20011;-67
2024/01/01 00:29:50;;;;;;;;;;;17.70;49.40;;;;;;5094571;28;20286;-67
2024/01/01 00:32:16;;;;;;;;;;;17.60;49.50;;;;;;5094614;28;20022;-67
2024/01/01 00:34:42;;;;;;;;;;;17.60;49.70;;;;;;5077345;28;20325;-66
2024/01/01 00:37:07;;;;;;;;;;;17.60;49.70;;;;;;5112501;28;19924;-67
2024/01/01 00:39:33;;;;;;;;;;;17.50;49.80;;;;;;5094522;28;20339;-67
2024/01/01 00:41:58;;;;;;;;;;;17.50;49.90;;;;;;5128755;28;20382;-67
2024/01/01 00:44:26;;;;;;;;;;;17.40;49.90;;;;;;5094487;28;19958;-67
2024/01/01 00:46:51;;;;;;;;;;;17.40;50.00;;;;;;5094210;28;19965;-67
2024/01/01 00:49:17;;;;;;;;;;;17.40;50.10;;;;;;5094443;28;19923;-67
2024/01/01 00:51:43;;;;;;;;;;;17.30;50.20;;;;;;5093951;28;20394;-67
2024/01/01 00:54:09;;;;;;;;;;;17.20;50.20;;;;;;5112287;28;19934;-67
2024/01/01 00:56:35;;;;;;;;;;;17.20;50.40;;;;;;5111852;28;19924;-67
2024/01/01 00:59:00;;;;;;;;;;;17.20;50.40;;;;;;5093910;28;19927;-67
2024/01/01 01:01:26;;;;;;;;;;;17.20;50.60;;;;;;5093913;28;19981;-67
2024/01/01 01:03:52;;;;;;;;;;;17.10;50.60;;;;;;5114228;28;20010;-67
2024/01/01 01:06:18;;;;;;;;;;;17.10;50.70;;;;;;5132083;27;20014;-67
2024/01/01 01:08:44;;;;;;;;;;;17.10;50.80;;;;;;5131854;27;20026;-67
2024/01/01 01:11:09;;;;;;;;;;;17.00;50.80;;;;;;5115953;28;20015;-67
2024/01/01 01:13:35;;;;;;;;;;;17.00;50.90;;;;;;5116229;28;20351;-68
2024/01/01 01:16:00;;;;;;;;;;;17.00;51.00;;;;;;5097326;28;19923;-67
2024/01/01 01:18:26;;;;;;;;;;;17.00;51.10;;;;;;5097308;28;19938;-67
2024/01/01 01:20:51;;;;;;;;;;;16.90;51.10;;;;;;5097711;28;19935;-67
2024/01/01 01:23:17;;;;;;;;;;;16.90;51.20;;;;;;5097568;28;20375;-67
2024/01/01 01:25:45;;;;;;;;;;;16.90;51.30;;;;;;5097379;28;19927;-67
2024/01/01 01:28:11;;;;;;;;;;;16.90;51.40;;;;;;5096999;28;19927;-67
2024/01/01 01:30:36;;;;;;;;;;;16.80;51.50;;;;;;5115398;28;19920;-67
2024/01/01 01:33:02;;;;;;;;;;;16.70;51.50;;;;;;5115503;28;19919;-67
2024/01/01 01:35:28;;;;;;;;;;;16.70;51.60;;;;;;5097192;28;19926;-67
2024/01/01 01:37:56;;;;;;;;;;;16.70;51.70;;;;;;5097163;28;19924;-67
2024/01/01 01:40:24;;;;;;;;;;;16.70;51.80;;;;;;5115333;28;20025;-67
2024/01/01 01:42:50;;;;;;;;;;;16.60;51.80;;;;;;5097045;28;20438;-69
2024/01/01 01:45:16;;;;;;;;;;;16.60;51.80;;;;;;5115047;28;19943;-67
2024/01/01 01:47:41;;;;;;;;;;;16.60;51.90;;;;;;5115030;28;20286;-67
2024/01/01 01:50:07;;;;;;;;;;;16.60;51.90;;;;;;5115176;28;19962;-67
2024/01/01 01:52:34;;;;;;;;;;;16.50;52.00;;;;;;5114832;28;19920;-66
2024/01/01 01:55:00;;;;;;;;;;;16.50;52.00;;;;;;5114642;28;19919;-67
2024/01/01 01:57:26;;;;;;;;;;;16.60;52.20;;;;;;5096426;28;20382;-67
2024/01/01 01:59:52;;;;;;;;;;;16.50;52.20;;;;;;5131019;27;20010;-67
2024/01/01 02:02:19;;;;;;;;;;;16.40;52.20;;;;;;5096459;28;20435;-67
2024/01/01 02:04:45;;;;;;;;;;;16.40;52.20;;;;;;5130849;27;19927;-67
2024/01/01 02:07:11;;;;;;;;;;;16.40;52.20;;;;;;5096439;28;20290;-67
2024/01/01 02:09:37;;;;;;;;;;;16.40;52.30;;;;;;5096680;28;19920;-67
2024/01/01 02:12:02;;;;;;;;;;;16.40;52.30;;;;;;5130475;27;19968;-67
2024/01/01 02:14:29;;;;;;;;;;;16.40;52.40;;;;;;5096108;28;19953;-67
2024/01/01 02:16:54;;;;;;;;;;;16.30;52.40;;;;;;5114644;28;19923;-68
2024/01/01 02:19:22;;;;;;;;;;;16.30;52.40;;;;;;5096358;28;19927;-67
2024/01/01 02:21:49;;;;;;;;;;;16.30;52.50;;;;;;5096415;28;20294;-67
2024/01/01 02:24:15;;;;;;;;;;;16.30;52.50;;;;;;5096378;28;20080;-67
2024/01/01 02:26:42;;;;;;;;;;;16.30;52.60;;;;;;5114342;28;19920;-67
2024/01/01 02:29:07;;;;;;;;;;;16.30;52.60;;;;;;5114284;28;20278;-67
2024/01/01 02:31:33;;;;;;;;;;;16.30;52.60;;;;;;5096222;28;19926;-67
2024/01/01 02:33:58;;;;;;;;;;;16.30;52.60;;;;;;5114286;28;20344;-67
2024/01/01 02:36:24;;;;;;;;;;;16.30;52.60;;;;;;5095787;28;19924;-67
2024/01/01 02:38:49;;;;;;;;;;;16.20;52.50;;;;;;5095959;28;19955;-66
2024/01/01 02:41:15;;;;;;;;;;;16.30;52.50;;;;;;5129917;27;19924;-66
2024/01/01 02:43:40;;;;;;;;;;;16.30;52.60;;;;;;5096033;28;19920;-67
2024/01/01 02:46:06;;;;;;;;;;;16.20;52.60;;;;;;5114029;28;19973;-67
2024/01/01 02:48:32;;;;;;;;;;;16.20;52.60;;;;;;5095650;28;19920;-67
2024/01/01 02:50:57;;;;;;;;;;;16.20;52.60;;;;;;5129942;27;19926;-67
2024/01/01 02:53:23;;;;;;;;;;;16.20;52.60;;;;;;5095824;28;20271;-67
2024/01/01 02:55:48;;;;;;;;;;;16.20;52.60;;;;;;5113545;28;19923;-66
2024/01/01 02:58:14;;;;;;;;;;;16.20;52.60;;;;;;5095787;28;19919;-66
2024/01/01 03:00:41;;;;;;;;;;;16.20;52.70;;;;;;5113538;28;20371;-68
2024/01/01 03:03:06;;;;;;;;;;;16.20;52.70;;;;;;5095336;28;19920;-67
2024/01/01 03:05:32;;;;;;;;;;;16.20;52.70;;;;;;5095571;28;19919;-67
2024/01/01 03:07:57;;;;;;;;;;;16.10;52.70;;;;;;5095345;28;19926;-67
2024/01/01 03:10:23;;;;;;;;;;;16.10;52.80;;;;;;5113496;28;19923;-67
2024/01/01 03:12:49;;;;;;;;;;;16.10;52.80;;;;;;5113504;28;19942;-66
2024/01/01 03:15:14;;;;;;;;;;;16.10;52.90;;;;;;5113274;28;19943;-67
2024/01/01 03:17:41;;;;;;;;;;;16.10;52.90;;;;;;5113312;28;19923;-68
2024/01/01 03:20:06;;;;;;;;;;;16.00;52.90;;;;;;5095292;28;19920;-68
2024/01/01 03:22:32;;;;;;;;;;;16.00;52.90;;;;;;5095028;28;19927;-67
2024/01/01 03:24:57;;;;;;;;;;;16.00;53.00;;;;;;5095302;28;19920;-67
2024/01/01 03:27:23;;;;;;;;;;;16.00;53.00;;;;;;5094809;28;19989;-67
2024/01/01 03:29:49;;;;;;;;;;;16.20;53.20;;;;;;5094945;28;19920;-67
2024/01/01 03:32:14;;;;;;;;;;;16.60;52.50;;;;;;5095036;28;19927;-67
2024/01/01 03:34:40;;;;;;;;;;;17.00;51.70;;;;;;5094904;28;19920;-67
2024/01/01 03:37:05;;;;;;;;;;;17.30;50.80;;;;;;5094661;28;19935;-67
2024/01/01 03:39:31;;;;;;;;;;;17.80;49.90;;;;;;5095395;28;19969;-67
2024/01/01 03:41:59;;;;;;;;;;;18.20;49.00;;;;;;5112949;28;19920;-67
2024/01/01 03:44:24;;;;;;;;;;;18.70;48.10;;;;;;5095061;28;20302;-67
2024/01/01 03:46:50;;;;;;;;;;;19.20;47.10;;;;;;5112802;28;19920;-67
2024/01/01 03:49:15;;;;;;;;;;;19.80;46.20;;;;;;5113062;28;20367;-67
2024/01/01 03:51:41;;;;;;;;;;;20.40;45.10;;;;;;5112987;28;19920;-67
2024/01/01 03:54:06;;;;;;;;;;;20.90;44.00;;;;;;5094659;28;20429;-67
2024/01/01 03:56:32;;;;;;;;;;;21.50;42.90;;;;;;5090891;28;19931;-68
2024/01/01 03:58:58;;;;;;;;;;;22.00;42.10;;;;;;5112749;28;20428;-67
2024/01/01 04:01:25;;;;;;;;;;;22.50;41.30;;;;;;5094785;28;19968;-68
2024/01/01 04:03:51;;;;;;;;;;;22.90;40.70;;;;;;5112284;28;19924;-67
2024/01/01 04:06:17;;;;;;;;;;;23.20;40.10;;;;;;5113048;28;20375;-67
2024/01/01 04:08:42;;;;;;;;;;;23.50;39.50;;;;;;5094796;28;19963;-68
2024/01/01 04:11:08;;;;;;;;;;;23.70;39.30;;;;;;5112750;28;20397;-67
2024/01/01 04:13:33;;;;;;;;;;;23.80;39.10;;;;;;5094366;28;19930;-68
2024/01/01 04:16:02;;;;;;;;;;;23.80;39.10;;;;;;5094496;28;19994;-67
2024/01/01 04:18:27;;;;;;;;;;;23.70;39.10;;;;;;5094371;28;20374;-68
2024/01/01 04:20:53;;;;;;;;;;;23.60;39.20;;;;;;5094690;28;19919;-67
2024/01/01 04:23:22;;;;;;;;;;;23.50;39.40;;;;;;5094273;28;20321;-67
2024/01/01 04:25:47;;;;;;;;;;;23.30;39.50;;;;;;5094616;28;20349;-67
2024/01/01 04:28:13;;;;;;;;;;;23.20;39.80;;;;;;5094548;28;20007;-67
2024/01/01 04:30:38;;;;;;;;;;;23.10;40.10;;;;;;5112583;28;19920;-67
2024/01/01 04:33:04;;;;;;;;;;;22.90;40.30;;;;;;5112393;28;19966;-67
2024/01/01 04:35:30;;;;;;;;;;;22.70;40.50;;;;;;5112430;28;20363;-68
2024/01/01 04:37:56;;;;;;;;;;;22.60;40.80;;;;;;5113046;28;19928;-67
2024/01/01 04:40:21;;;;;;;;;;;22.40;41.00;;;;;;5098143;28;19920;-67
2024/01/01 04:42:49;;;;;;;;;;;22.20;41.20;;;;;;5116550;28;20022;-67
2024/01/01 04:45:15;;;;;;;;;;;22.00;41.50;;;;;;5115426;28;20347;-68
2024/01/01 04:47:40;;;;;;;;;;;21.90;42.60;;;;;;5098009;28;19951;-67
2024/01/01 04:50:06;;;;;;;;;;;21.60;42.10;;;;;;5098133;28;20344;-67
2024/01/01 04:52:32;;;;;;;;;;;21.40;42.40;;;;;;5097973;28;19933;-68
2024/01/01 04:54:57;;;;;;;;;;;21.20;42.70;;;;;;5097606;27;19965;-68
2024/01/01 04:57:23;;;;;;;;;;;21.10;43.00;;;;;;5097799;28;19949;-68
2024/01/01 04:59:48;;;;;;;;;;;20.90;43.20;;;;;;5098011;28;20014;-67
2024/01/01 05:02:15;;;;;;;;;;;20.80;43.50;;;;;;5097727;28;19934;-67
2024/01/01 05:04:40;;;;;;;;;;;20.60;43.60;;;;;;5097822;28;20018;-67
2024/01/01 05:07:06;;;;;;;;;;;20.50;43.90;;;;;;5097703;28;20430;-67
2024/01/01 05:09:32;;;;;;;;;;;20.40;44.20;;;;;;5132274;27;19926;-68
2024/01/01 05:11:57;;;;;;;;;;;20.20;44.20;;;;;;5097533;28;20053;-67
2024/01/01 05:14:23;;;;;;;;;;;20.10;44.50;;;;;;5131892;27;20367;-67
2024/01/01 05:16:48;;;;;;;;;;;20.00;44.60;;;;;;5115619;28;20086;-68
2024/01/01 05:19:14;;;;;;;;;;;20.00;44.80;;;;;;5097104;28;20374;-67
2024/01/01 05:21:39;;;;;;;;;;;19.80;44.90;;;;;;5097756;28;20302;-67
2024/01/01 05:24:05;;;;;;;;;;;19.80;45.10;;;;;;5097874;28;19949;-67
2024/01/01 05:26:30;;;;;;;;;;;19.70;45.20;;;;;;5097494;28;20417;-68
2024/01/01 05:28:56;;;;;;;;;;;19.60;45.40;;;;;;5097356;28;20358;-67
2024/01/01 05:31:22;;;;;;;;;;;19.50;45.50;;;;;;5097149;28;19920;-67
2024/01/01 05:33:48;;;;;;;;;;;19.50;45.70;;;;;;5097053;28;20067;-67
2024/01/01 05:36:13;;;;;;;;;;;19.40;45.80;;;;;;5097148;28;19977;-66
2024/01/01 05:38:39;;;;;;;;;;;19.30;45.90;;;;;;5097321;28;19965;-67
2024/01/01 05:41:05;;;;;;;;;;;19.20;46.00;;;;;;5097117;28;19949;-67
2024/01/01 05:43:31;;;;;;;;;;;19.20;46.20;;;;;;5096967;28;20407;-67
2024/01/01 05:45:57;;;;;;;;;;;19.10;46.30;;;;;;5115055;28;19920;-68
2024/01/01 05:48:22;;;;;;;;;;;19.00;46.40;;;;;;5131256;27;19927;-67
2024/01/01 05:50:48;;;;;;;;;;;18.90;46.50;;;;;;5114565;28;19919;-67
2024/01/01 05:53:13;;;;;;;;;;;18.90;46.60;;;;;;5097066;28;20010;-67
2024/01/01 05:55:39;;;;;;;;;;;18.90;46.80;;;;;;5096516;28;19923;-67
2024/01/01 05:58:04;;;;;;;;;;;18.80;46.90;;;;;;5131035;27;20371;-67
2024/01/01 06:00:30;;;;;;;;;;;18.80;47.00;;;;;;5096590;28;20315;-67
2024/01/01 06:02:55;;;;;;;;;;;18.70;47.00;;;;;;5130626;27;19927;-67
2024/01/01 06:05:21;;;;;;;;;;;18.70;47.10;;;;;;5130589;27;19919;-68
2024/01/01 06:07:47;;;;;;;;;;;18.70;47.10;;;;;;5130489;27;19920;-68
2024/01/01 06:10:12;;;;;;;;;;;18.70;47.20;;;;;;5096474;28;20282;-67
2024/01/01 06:12:37;;;;;;;;;;;18.60;47.30;;;;;;5096204;28;19920;-67
2024/01/01 06:15:06;;;;;;;;;;;18.60;47.40;;;;;;5096608;28;19973;-67
2024/01/01 06:17:32;;;;;;;;;;;18.50;47.50;;;;;;5130328;27;19965;-68
2024/01/01 06:19:57;;;;;;;;;;;18.50;47.50;;;;;;5096298;28;19923;-68
2024/01/01 06:22:26;;;;;;;;;;;18.40;47.60;;;;;;5096403;28;19983;-67
2024/01/01 06:24:52;;;;;;;;;;;18.30;47.80;;;;;;5114563;28;20290;-67
2024/01/01 06:27:20;;;;;;;;;;;18.30;47.90;;;;;;5079475;28;19920;-67
2024/01/01 06:29:48;;;;;;;;;;;18.20;48.10;;;;;;5096280;28;19923;-67
2024/01/01 06:32:14;;;;;;;;;;;18.10;48.20;;;;;;5114274;28;19927;-67
2024/01/01 06:34:39;;;;;;;;;;;18.10;48.40;;;;;;5096404;28;19919;-67
2024/01/01 06:37:08;;;;;;;;;;;18.00;48.40;;;;;;5095933;28;19924;-67
2024/01/01 06:39:33;;;;;;;;;;;18.00;48.60;;;;;;5096236;28;19924;-68
2024/01/01 06:41:59;;;;;;;;;;;17.90;48.70;;;;;;5096048;28;19920;-68
2024/01/01 06:44:27;;;;;;;;;;;17.80;48.80;;;;;;5114077;28;19965;-67
2024/01/01 06:46:52;;;;;;;;;;;17.80;48.90;;;;;;5114020;28;19920;-67
2024/01/01 06:49:18;;;;;;;;;;;17.70;49.00;;;;;;5095971;28;19965;-67
2024/01/01 06:51:48;;;;;;;;;;;17.70;49.20;;;;;;5095542;28;19961;-67
2024/01/01 06:54:13;;;;;;;;;;;17.60;49.20;;;;;;5095862;28;19919;-67
2024/01/01 06:56:40;;;;;;;;;;;17.50;49.40;;;;;;5095191;28;20431;-67
2024/01/01 06:59:05;;;;;;;;;;;17.50;49.50;;;;;;5113596;28;20387;-67
2024/01/01 07:01:31;;;;;;;;;;;17.50;49.60;;;;;;5095013;28;19920;-67
2024/01/01 07:03:56;;;;;;;;;;;17.40;49.70;;;;;;5095566;28;19920;-67
2024/01/01 07:06:23;;;;;;;;;;;17.40;49.80;;;;;;5113546;28;19920;-67
2024/01/01 07:08:48;;;;;;;;;;;17.30;49.80;;;;;;5113467;28;19927;-67
2024/01/01 07:11:17;;;;;;;;;;;17.30;50.80;;;;;;5095357;28;19919;-67
2024/01/01 07:13:42;;;;;;;;;;;17.20;50.10;;;;;;5095692;28;19927;-67
2024/01/01 07:16:09;;;;;;;;;;;17.20;50.20;;;;;;5095131;28;19924;-67
2024/01/01 07:18:35;;;;;;;;;;;17.20;50.30;;;;;;5095032;28;19951;-67
2024/01/01 07:21:00;;;;;;;;;;;17.10;50.40;;;;;;5095084;28;19954;-67
2024/01/01 07:23:26;;;;;;;;;;;17.10;50.50;;;;;;5094966;28;19920;-67
2024/01/01 07:25:52;;;;;;;;;;;17.00;50.50;;;;;;5095375;28;19976;-67
2024/01/01 07:28:17;;;;;;;;;;;17.00;50.70;;;;;;5113496;28;19920;-67
2024/01/01 07:30:43;;;;;;;;;;;17.00;50.80;;;;;;5113188;28;20299;-69
2024/01/01 07:33:08;;;;;;;;;;;17.00;50.90;;;;;;5094981;28;19966;-67
2024/01/01 07:35:34;;;;;;;;;;;16.90;50.90;;;;;;5094758;28;19927;-67
2024/01/01 07:38:00;;;;;;;;;;;16.80;50.90;;;;;;5095019;28;20393;-67
2024/01/01 07:40:26;;;;;;;;;;;16.90;51.10;;;;;;5092703;28;20332;-67
2024/01/01 07:42:51;;;;;;;;;;;16.70;51.10;;;;;;5095103;28;19926;-67
2024/01/01 07:45:17;;;;;;;;;;;16.80;51.30;;;;;;5094729;28;20017;-67
2024/01/01 07:47:42;;;;;;;;;;;16.70;51.40;;;;;;5113007;28;20330;-67
2024/01/01 07:50:08;;;;;;;;;;;16.70;51.60;;;;;;5113425;28;20346;-67
2024/01/01 07:52:36;;;;;;;;;;;16.60;51.60;;;;;;5112982;28;20332;-67
2024/01/01 07:55:02;;;;;;;;;;;16.60;51.80;;;;;;5095085;27;19988;-67
2024/01/01 07:57:28;;;;;;;;;;;16.60;52.00;;;;;;5094775;28;19924;-67
2024/01/01 07:59:55;;;;;;;;;;;17.00;51.70;;;;;;5094554;28;19919;-68
2024/01/01 08:02:21;;;;;;;;;;;17.40;50.80;;;;;;5094747;28;19920;-68
2024/01/01 08:04:47;;;;;;;;;;;17.80;50.00;;;;;;5112934;28;19924;-67
2024/01/01 08:07:12;;;;;;;;;;;18.30;49.00;;;;;;5094748;28;20320;-67
2024/01/01 08:09:38;;;;;;;;;;;18.90;47.80;;;;;;5112932;28;19928;-68
2024/01/01 08:12:04;;;;;;;;;;;19.60;46.50;;;;;;5095304;28;19920;-67
2024/01/01 08:14:30;;;;;;;;;;;20.30;46.00;;;;;;5098620;28;20004;-67
2024/01/01 08:16:55;;;;;;;;;;;21.00;44.00;;;;;;5098768;28;19993;-67
2024/01/01 08:19:21;;;;;;;;;;;21.60;42.90;;;;;;5116752;28;20331;-68
2024/01/01 08:21:49;;;;;;;;;;;22.30;41.90;;;;;;5082024;28;20004;-68
2024/01/01 08:24:14;;;;;;;;;;;22.80;40.90;;;;;;5116840;28;19974;-67
2024/01/01 08:26:40;;;;;;;;;;;23.20;40.40;;;;;;5098894;28;19927;-67
2024/01/01 08:29:05;;;;;;;;;;;23.50;39.80;;;;;;5081408;28;19924;-67
2024/01/01 08:31:31;;;;;;;;;;;23.80;39.30;;;;;;5098216;28;20004;-68
2024/01/01 08:33:56;;;;;;;;;;;23.90;38.90;;;;;;5098597;28;19920;-67
2024/01/01 08:36:22;;;;;;;;;;;24.10;38.80;;;;;;5098554;28;19923;-67
2024/01/01 08:38:48;;;;;;;;;;;24.10;38.80;;;;;;5116443;28;20559;-67
2024/01/01 08:41:13;;;;;;;;;;;24.10;38.80;;;;;;5098024;28;19920;-67
2024/01/01 08:43:39;;;;;;;;;;;24.00;38.90;;;;;;5098076;28;19920;-67
2024/01/01 08:46:04;;;;;;;;;;;23.80;39.00;;;;;;5098199;28;20007;-67
2024/01/01 08:48:30;;;;;;;;;;;23.70;39.10;;;;;;5116426;28;19978;-67
2024/01/01 08:50:56;;;;;;;;;;;23.60;39.40;;;;;;5098140;28;19924;-68
2024/01/01 08:53:21;;;;;;;;;;;23.50;39.60;;;;;;5098012;28;19964;-67
2024/01/01 08:55:47;;;;;;;;;;;23.30;39.80;;;;;;5097555;28;19927;-67
2024/01/01 08:58:13;;;;;;;;;;;23.10;40.10;;;;;;5097880;28;19923;-67
2024/01/01 09:00:39;;;;;;;;;;;23.00;40.40;;;;;;5116059;28;20278;-67
2024/01/01 09:03:04;;;;;;;;;;;22.80;40.60;;;;;;5097897;28;19919;-67
2024/01/01 09:05:30;;;;;;;;;;;22.60;40.80;;;;;;5116038;28;20535;-68
2024/01/01 09:07:55;;;;;;;;;;;22.40;41.10;;;;;;5097969;28;19924;-68
2024/01/01 09:10:24;;;;;;;;;;;22.20;41.40;;;;;;5097499;28;19927;-68
2024/01/01 09:12:49;;;;;;;;;;;22.10;41.70;;;;;;5097980;28;19980;-67
2024/01/01 09:15:18;;;;;;;;;;;21.80;42.00;;;;;;5097754;28;19919;-67
2024/01/01 09:17:43;;;;;;;;;;;21.60;42.30;;;;;;5097301;28;19919;-68
2024/01/01 09:20:12;;;;;;;;;;;21.50;42.60;;;;;;5097619;28;19930;-68
2024/01/01 09:22:38;;;;;;;;;;;21.30;42.90;;;;;;5097363;28;20006;-67
2024/01/01 09:25:07;;;;;;;;;;;21.10;43.10;;;;;;5096713;28;19920;-67
2024/01/01 09:27:32;;;;;;;;;;;21.00;43.40;;;;;;5080567;28;19927;-67
2024/01/01 09:30:01;;;;;;;;;;;20.80;43.60;;;;;;5097579;28;19947;-67
2024/01/01 09:32:26;;;;;;;;;;;20.70;43.90;;;;;;5115328;28;19924;-68
2024/01/01 09:34:52;;;;;;;;;;;20.60;44.10;;;;;;5115434;28;19927;-67
2024/01/01 09:37:17;;;;;;;;;;;20.50;45.10;;;;;;5080157;28;19920;-67
2024/01/01 09:39:43;;;;;;;;;;;20.30;44.40;;;;;;5097401;28;19977;-67
2024/01/01 09:42:09;;;;;;;;;;;20.20;44.70;;;;;;5096964;28;20285;-67
2024/01/01 09:44:34;;;;;;;;;;;20.10;44.80;;;;;;5097437;28;19919;-67
2024/01/01 09:47:00;;;;;;;;;;;20.00;45.00;;;;;;5096855;28;20390;-68
2024/01/01 09:49:26;;;;;;;;;;;20.10;45.20;;;;;;5115191;28;19924;-67
2024/01/01 09:51:54;;;;;;;;;;;19.90;45.20;;;;;;5097078;28;19919;-67
2024/01/01 09:54:19;;;;;;;;;;;19.80;45.30;;;;;;5097001;28;19920;-67
2024/01/01 09:56:45;;;;;;;;;;;19.70;45.50;;;;;;5114695;27;19931;-68
2024/01/01 09:59:11;;;;;;;;;;;19.60;45.60;;;;;;5096600;28;19920;-67
2024/01/01 10:01:38;;;;;;;;;;;19.60;45.70;;;;;;5096578;28;19920;-67
2024/01/01 10:04:07;;;;;;;;;;;19.50;45.90;;;;;;5096389;28;19919;-67
2024/01/01 10:06:34;;;;;;;;;;;19.40;46.00;;;;;;5114841;28;20006;-68
2024/01/01 10:09:08;;;;;;;;;;;19.30;46.10;;;;;;5096650;28;19919;-67
2024/01/01 10:11:34;;;;;;;;;;;19.20;46.20;;;;;;5096462;28;19926;-67
2024/01/01 10:14:04;;;;;;;;;;;19.20;46.30;;;;;;5114710;28;20010;-67
2024/01/01 10:16:38;;;;;;;;;;;19.10;46.40;;;;;;5114601;28;19969;-68
2024/01/01 10:19:04;;;;;;;;;;;19.10;46.50;;;;;;5096403;28;19920;-68
2024/01/01 10:21:31;;;;;;;;;;;19.10;46.60;;;;;;5096769;28;19919;-67
2024/01/01 10:23:57;;;;;;;;;;;19.00;46.70;;;;;;5114708;28;19989;-66
2024/01/01 10:26:26;;;;;;;;;;;19.00;46.80;;;;;;5096076;28;19920;-68
2024/01/01 10:28:51;;;;;;;;;;;18.90;46.80;;;;;;5114388;28;19919;-68
2024/01/01 10:31:17;;;;;;;;;;;18.80;46.90;;;;;;5096211;28;19927;-68
2024/01/01 10:33:44;;;;;;;;;;;18.80;47.10;;;;;;5096373;28;19927;-68
2024/01/01 10:36:12;;;;;;;;;;;18.70;47.10;;;;;;5094855;28;19938;-69
2024/01/01 10:38:38;;;;;;;;;;;18.60;47.30;;;;;;5096216;28;20014;-67
2024/01/01 10:41:04;;;;;;;;;;;18.60;47.40;;;;;;5095794;28;20438;-67
2024/01/01 10:43:32;;;;;;;;;;;18.50;47.50;;;;;;5114229;28;20018;-68
2024/01/01 10:46:00;;;;;;;;;;;18.50;47.70;;;;;;5095674;28;19926;-68
2024/01/01 10:48:26;;;;;;;;;;;18.40;47.80;;;;;;5096193;28;20375;-68
2024/01/01 10:51:01;;;;;;;;;;;18.40;47.90;;;;;;5095924;28;19919;-68
2024/01/01 10:53:32;;;;;;;;;;;18.30;48.00;;;;;;5095610;28;20007;-67
2024/01/01 11:01:26;;;;;;;;;;;18.20;48.30;;;;;;5089811;28;19941;-68
2024/01/01 11:03:52;;;;;;;;;;;18.10;48.40;;;;;;5088553;28;19920;-67
2024/01/01 11:09:20;;;;;;;;;;;18.00;48.70;;;;;;5110294;27;19918;-67
2024/01/01 11:11:47;;;;;;;;;;;18.00;48.70;;;;;;5108824;28;19930;-68
2024/01/01 11:14:24;;;;;;;;;;;17.90;48.80;;;;;;5109146;28;19970;-67
2024/01/01 11:16:51;;;;;;;;;;;17.90;49.00;;;;;;5110106;28;19920;-69
2024/01/01 11:19:36;;;;;;;;;;;17.80;49.10;;;;;;5109092;28;19959;-67
2024/01/01 11:22:25;;;;;;;;;;;17.80;49.20;;;;;;5108879;28;20421;-67
2024/01/01 11:24:51;;;;;;;;;;;17.70;49.20;;;;;;5108587;28;19956;-67
2024/01/01 11:27:24;;;;;;;;;;;17.70;49.30;;;;;;5108693;28;19924;-67
2024/01/01 11:29:50;;;;;;;;;;;17.60;49.50;;;;;;5109032;28;19919;-68
2024/01/01 11:32:17;;;;;;;;;;;17.60;49.50;;;;;;5110292;28;20454;-67
2024/01/01 11:34:42;;;;;;;;;;;17.50;49.60;;;;;;5108580;28;19969;-67
2024/01/01 11:37:08;;;;;;;;;;;17.50;49.70;;;;;;5108745;28;20329;-68
2024/01/01 11:39:33;;;;;;;;;;;17.40;49.80;;;;;;5108714;28;19920;-67
2024/01/01 11:41:59;;;;;;;;;;;17.40;49.90;;;;;;5109635;28;20444;-68
2024/01/01 11:44:25;;;;;;;;;;;17.40;50.00;;;;;;5108403;28;20393;-67
2024/01/01 11:46:53;;;;;;;;;;;17.40;50.10;;;;;;5108429;28;19946;-68
2024/01/01 11:49:19;;;;;;;;;;;17.30;50.10;;;;;;5108265;28;19999;-67
2024/01/01 11:51:49;;;;;;;;;;;17.30;50.20;;;;;;5108762;28;20027;-68
2024/01/01 11:54:14;;;;;;;;;;;17.20;50.30;;;;;;5108126;28;19970;-67
2024/01/01 11:56:40;;;;;;;;;;;17.30;50.50;;;;;;5108141;28;19920;-67
2024/01/01 11:59:12;;;;;;;;;;;17.20;50.50;;;;;;5109264;28;19926;-67
2024/01/01 12:01:39;;;;;;;;;;;17.20;50.60;;;;;;5108105;28;19973;-68
2024/01/01 12:04:06;;;;;;;;;;;17.10;50.60;;;;;;5109219;28;19926;-67
2024/01/01 12:06:32;;;;;;;;;;;17.10;50.70;;;;;;5108140;28;19927;-68
2024/01/01 12:09:02;;;;;;;;;;;17.10;50.70;;;;;;5107686;28;19928;-67
2024/01/01 12:11:27;;;;;;;;;;;17.10;50.80;;;;;;5107798;28;20363;-67
2024/01/01 12:13:53;;;;;;;;;;;17.10;50.90;;;;;;5107909;28;19920;-68
2024/01/01 12:16:19;;;;;;;;;;;17.00;50.90;;;;;;5107910;28;19923;-68
2024/01/01 12:18:45;;;;;;;;;;;17.00;51.00;;;;;;5104268;28;19920;-68
2024/01/01 12:21:14;;;;;;;;;;;17.00;51.10;;;;;;5094381;28;19931;-67
2024/01/01 12:23:39;;;;;;;;;;;17.00;51.20;;;;;;5094057;28;19927;-67
2024/01/01 12:26:05;;;;;;;;;;;16.90;51.20;;;;;;5094337;28;19920;-67
2024/01/01 12:28:30;;;;;;;;;;;16.90;51.30;;;;;;5093967;28;19921;-68
2024/01/01 12:30:59;;;;;;;;;;;16.90;51.30;;;;;;5094230;28;20012;-68
2024/01/01 12:33:25;;;;;;;;;;;16.90;51.50;;;;;;5095105;28;19920;-67
2024/01/01 12:35:51;;;;;;;;;;;16.80;51.50;;;;;;5094148;28;19927;-67
2024/01/01 12:38:16;;;;;;;;;;;16.80;51.60;;;;;;5094945;28;19920;-67
2024/01/01 12:40:42;;;;;;;;;;;16.80;51.60;;;;;;5093888;28;19924;-67
2024/01/01 12:43:07;;;;;;;;;;;16.80;51.70;;;;;;5093711;28;19973;-68
2024/01/01 12:45:33;;;;;;;;;;;17.10;51.70;;;;;;5093587;28;20011;-68
2024/01/01 12:47:59;;;;;;;;;;;17.50;50.90;;;;;;5094748;28;19970;-67
2024/01/01 12:50:24;;;;;;;;;;;17.80;50.10;;;;;;5093773;28;19924;-67
2024/01/01 12:52:50;;;;;;;;;;;18.30;49.30;;;;;;5093690;28;20375;-67
2024/01/01 12:55:15;;;;;;;;;;;18.80;48.20;;;;;;5094653;28;19927;-67
2024/01/01 12:57:41;;;;;;;;;;;19.50;47.10;;;;;;5094852;28;19927;-67
2024/01/01 13:00:07;;;;;;;;;;;20.20;45.70;;;;;;5093585;28;19973;-67
2024/01/01 13:02:32;;;;;;;;;;;20.80;44.70;;;;;;5093516;28;20079;-67
2024/01/01 13:04:58;;;;;;;;;;;21.50;43.50;;;;;;5093481;28;20014;-67
2024/01/01 13:07:23;;;;;;;;;;;22.10;42.50;;;;;;5101345;28;19928;-67
2024/01/01 13:09:49;;;;;;;;;;;22.60;41.60;;;;;;5096395;28;19919;-67
2024/01/01 13:12:15;;;;;;;;;;;23.10;40.70;;;;;;5096427;28;19919;-67
2024/01/01 13:14:40;;;;;;;;;;;23.60;40.10;;;;;;5096706;28;19926;-67
2024/01/01 13:17:06;;;;;;;;;;;23.90;39.50;;;;;;5096609;28;19920;-69
2024/01/01 13:19:32;;;;;;;;;;;24.20;39.10;;;;;;5096585;28;19920;-68
2024/01/01 13:21:58;;;;;;;;;;;24.40;38.80;;;;;;5096584;28;19999;-67
2024/01/01 13:24:24;;;;;;;;;;;24.40;38.70;;;;;;5114406;28;19919;-67
2024/01/01 13:26:50;;;;;;;;;;;24.40;38.70;;;;;;5096352;28;20443;-67
2024/01/01 13:29:16;;;;;;;;;;;24.30;38.60;;;;;;5114621;28;19926;-67
2024/01/01 13:31:41;;;;;;;;;;;24.20;38.80;;;;;;5113372;28;19919;-67
2024/01/01 13:34:07;;;;;;;;;;;24.10;38.90;;;;;;5096085;28;19926;-67
2024/01/01 13:36:33;;;;;;;;;;;23.90;39.10;;;;;;5096377;28;19919;-67
2024/01/01 13:38:59;;;;;;;;;;;23.80;39.40;;;;;;5096166;28;19972;-67
2024/01/01 13:41:27;;;;;;;;;;;23.60;39.60;;;;;;5079703;28;19962;-67
2024/01/01 13:43:53;;;;;;;;;;;23.40;39.90;;;;;;5114194;28;19966;-67
2024/01/01 13:46:18;;;;;;;;;;;23.30;40.20;;;;;;5095742;28;19927;-68
2024/01/01 13:48:44;;;;;;;;;;;23.10;40.40;;;;;;5095895;28;19924;-67
2024/01/01 13:51:10;;;;;;;;;;;22.90;41.40;;;;;;5095716;28;19922;-68
2024/01/01 13:53:36;;;;;;;;;;;22.70;41.00;;;;;;5113871;28;20317;-67
2024/01/01 13:56:03;;;;;;;;;;;22.50;41.30;;;;;;5095535;28;19928;-67
2024/01/01 13:58:30;;;;;;;;;;;22.20;41.50;;;;;;5095864;28;19993;-68
2024/01/01 14:00:56;;;;;;;;;;;22.10;41.80;;;;;;5095529;28;19965;-67
2024/01/01 14:03:22;;;;;;;;;;;21.90;42.10;;;;;;5095594;28;20432;-69
2024/01/01 14:05:48;;;;;;;;;;;21.60;42.40;;;;;;5095526;28;19920;-68
2024/01/01 14:08:13;;;;;;;;;;;21.50;42.70;;;;;;5095022;28;19998;-67
2024/01/01 14:10:39;;;;;;;;;;;21.30;42.90;;;;;;5095252;28;19964;-68
2024/01/01 14:13:04;;;;;;;;;;;21.20;43.30;;;;;;5113509;28;20523;-67
2024/01/01 14:15:30;;;;;;;;;;;21.10;43.50;;;;;;5095245;28;19923;-68
2024/01/01 14:17:55;;;;;;;;;;;20.90;43.70;;;;;;5095150;28;19927;-68